Latest Weather Observations for Kingfish B

IDV60801

Issued at 7:05 am EDT Thursday 27 November 2014 (issued every 30 minutes, with the page automatically refreshed every 10 minutes)

About weather observations | Map of weather stations | Latest weather observations for VIC | Other Formats
Station Details ID: 400139 Name: KINGFISH B (PLATFORM) Lat: -38.60 Lon: 148.19 Height: 31.4 m
Data from the previous 72 hours. | See also: Recent months for locations in Victoria
Date/Time
EDT
Temp
°C
App
Temp
°C
Dew
Point
Rel
Hum
%
Delta-T
°C
Wind Press
QNH
hPa
Press
MSL
hPa
Rain
since 9 am
mm
Dir
 
Spd
km/h
Gust
km/h
Spd
kts
Gust
kts
27/07:00am 14.2 9.6 6.7 60 3.6 SW 20 26 11 14 1022.5 - -
27/06:40am 14.2 8.5 6.7 60 3.6 SW 26 30 14 16 1022.2 - -
27/06:30am 14.2 9.3 6.9 61 3.6 SW 22 28 12 15 1022.2 - -
27/06:20am 14.1 9.4 6.1 58 3.8 SW 20 30 11 16 1022.1 - -
27/06:10am 14.1 8.8 6.6 60 3.6 SW 24 30 13 16 1021.9 - -
27/06:00am 14.0 9.4 6.4 60 3.7 SW 20 26 11 14 1021.9 - -
27/05:50am 14.0 9.4 6.3 60 3.7 SW 20 26 11 14 1021.7 - -
27/05:40am 14.3 8.9 6.5 59 3.8 SW 24 30 13 16 1021.7 - -
27/05:30am 14.4 9.4 6.6 59 3.8 SW 22 28 12 15 1021.7 - -
27/05:20am 14.4 9.5 6.8 60 3.7 SW 22 30 12 16 1021.6 - -
27/05:10am 14.5 9.6 6.8 60 3.7 SW 22 28 12 15 1021.7 - -
27/05:00am 14.5 9.5 6.6 59 3.8 WSW 22 30 12 16 1021.6 - -
27/04:50am 14.4 8.7 6.9 60 3.7 SW 26 32 14 17 1021.5 - -
27/04:40am 14.5 10.0 6.8 60 3.7 SW 20 30 11 16 1021.6 - -
27/04:30am 14.4 9.4 6.6 59 3.8 SW 22 32 12 17 1021.6 - -
27/04:20am 14.4 9.1 6.9 60 3.7 SW 24 33 13 18 1021.5 - -
27/04:10am 14.6 9.5 7.5 62 3.5 SW 24 33 13 18 1021.5 - -
27/04:00am 14.5 9.2 7.0 60 3.7 SW 24 28 13 15 1021.6 - -
27/03:50am 14.5 9.5 6.5 58 3.9 SW 22 33 12 18 1021.7 - -
27/03:40am 14.4 9.8 6.3 58 3.9 SW 20 28 11 15 1021.8 - -
27/03:30am 14.5 8.7 6.2 57 4.0 SW 26 32 14 17 1021.6 - -
27/03:20am 14.3 8.2 6.8 60 3.6 SW 28 35 15 19 1021.6 - -
27/03:10am 14.3 8.4 7.4 63 3.4 SW 28 32 15 17 1021.7 - -
27/03:00am 14.5 9.4 7.8 64 3.3 SW 24 35 13 19 1021.8 - -
27/02:50am 14.4 10.0 7.3 62 3.5 SW 20 26 11 14 1021.9 - -
27/02:40am 14.3 9.2 7.5 63 3.4 SW 24 32 13 17 1021.9 - -
27/02:20am 14.4 8.9 7.7 64 3.3 SW 26 30 14 16 1022.2 - -
27/02:10am 14.5 9.0 7.7 63 3.4 SW 26 30 14 16 1022.3 - -
27/02:00am 14.7 9.3 8.2 65 3.3 SSW 26 32 14 17 1022.4 - -
27/01:50am 14.9 8.8 8.2 64 3.4 SSW 30 35 16 19 1022.4 - -
27/01:40am 14.8 9.5 8.4 65 3.2 SSW 26 33 14 18 1022.5 - -
27/01:30am 14.7 9.4 8.5 66 3.1 SW 26 32 14 17 1022.5 - -
27/01:20am 14.6 9.3 8.5 67 3.1 SW 26 32 14 17 1022.4 - -
27/01:10am 14.6 9.3 8.5 67 3.1 SW 26 32 14 17 1022.4 - -
27/01:00am 14.5 8.4 8.2 66 3.2 SW 30 35 16 19 1022.2 - -
27/12:50am 14.5 9.1 8.0 65 3.2 SW 26 30 14 16 1022.3 - -
27/12:40am 14.4 8.5 7.7 64 3.3 SW 28 33 15 18 1022.2 - -
27/12:30am 14.6 8.1 8.0 64 3.3 SW 32 37 17 20 1022.1 - -
27/12:20am 15.4 9.2 7.9 61 3.8 SW 30 35 16 19 1022.1 - -
27/12:10am 15.2 9.2 8.5 64 3.4 SW 30 35 16 19 1022.2 - -
27/12:00am 14.6 8.5 8.2 65 3.2 SW 30 35 16 19 1021.9 - -
 
Date/Time
EDT
Temp
°C
App
Temp
°C
Dew
Point
Rel
Hum
%
Delta-T
°C
Wind Press
QNH
hPa
Press
MSL
hPa
Rain
since 9 am
mm
Dir
 
Spd
km/h
Gust
km/h
Spd
kts
Gust
kts
26/11:50pm 14.7 8.3 8.5 66 3.1 SW 32 39 17 21 1022.0 - -
26/11:40pm 14.8 8.3 8.3 65 3.3 SW 32 37 17 20 1022.1 - -
26/11:30pm 14.7 8.3 8.5 66 3.1 SSW 32 39 17 21 1022.4 - -
26/11:20pm 14.6 7.9 8.2 65 3.2 SW 33 41 18 22 1021.9 - -
26/11:10pm 14.6 7.6 8.4 66 3.1 SW 35 41 19 22 1021.8 - -
26/11:00pm 14.5 7.4 8.2 66 3.2 SW 35 41 19 22 1021.7 - -
26/10:50pm 14.4 7.7 8.1 66 3.1 SW 33 41 18 22 1021.8 - -
26/10:40pm 14.4 7.3 8.2 66 3.1 SW 35 43 19 23 1021.5 - -
26/10:30pm 14.4 7.0 8.2 66 3.1 SW 37 44 20 24 1021.2 - -
26/10:10pm 14.4 6.9 8.0 65 3.2 SW 37 43 20 23 1021.1 - -
26/10:00pm 14.4 6.9 7.9 65 3.2 SW 37 43 20 23 1021.0 - -
26/09:50pm 14.4 6.9 7.8 64 3.3 SW 37 44 20 24 1020.7 - -
26/09:40pm 14.4 5.4 7.4 63 3.4 SW 44 50 24 27 1020.1 - -
26/09:30pm 14.5 5.8 7.9 64 3.3 SW 43 52 23 28 1020.2 - -
26/09:20pm 14.5 5.7 7.9 64 3.3 SW 44 52 24 28 1020.1 - -
26/09:10pm 14.6 6.4 8.0 64 3.3 SW 41 50 22 27 1020.1 - -
26/09:00pm 14.8 6.9 8.0 64 3.4 SW 39 48 21 26 1020.1 - -
26/08:50pm 14.7 5.9 7.9 63 3.4 SW 44 50 24 27 1019.8 - -
26/08:40pm 14.9 6.3 8.0 63 3.5 SW 43 50 23 27 1019.8 - -
26/08:30pm 15.0 5.8 8.1 63 3.5 SW 46 54 25 29 1019.7 - -
26/08:20pm 15.1 6.6 8.4 64 3.4 SW 43 50 23 27 1020.0 - -
26/08:10pm 15.2 7.5 8.5 64 3.4 SW 39 46 21 25 1019.9 - -
26/08:00pm 15.3 7.1 8.4 63 3.5 SW 41 46 22 25 1019.9 - -
26/07:50pm 15.4 7.2 8.3 62 3.6 SW 41 48 22 26 1019.6 - -
26/07:40pm 15.4 7.2 8.4 63 3.5 SW 41 48 22 26 1019.3 - -
26/07:30pm 15.4 6.9 8.5 63 3.5 SW 43 50 23 27 1019.2 - -
26/07:20pm 15.4 6.9 8.7 64 3.4 SW 43 50 23 27 1019.1 - -
26/07:10pm 15.5 7.8 8.8 64 3.4 SW 39 44 21 24 1019.2 - -
26/07:00pm 15.5 8.3 9.2 66 3.2 SW 37 44 20 24 1019.3 - -
26/06:50pm 15.6 8.8 9.4 66 3.2 SW 35 44 19 24 1019.4 - -
26/06:40pm 15.6 8.8 9.3 66 3.3 SW 35 41 19 22 1019.3 - -
26/06:30pm 15.7 9.0 9.7 67 3.1 SW 35 41 19 22 1019.3 - -
26/06:20pm 15.8 9.2 9.9 68 3.1 SW 35 41 19 22 1019.2 - -
26/06:10pm 15.8 8.8 10.1 69 3.0 SW 37 41 20 22 1019.2 - -
26/06:00pm 15.9 10.0 10.4 70 2.9 SW 32 41 17 22 1019.3 - -
26/05:50pm 16.1 10.0 10.5 69 3.0 SW 33 39 18 21 1019.2 - -
26/05:40pm 16.2 10.1 10.5 69 3.0 SW 33 39 18 21 1019.2 - -
26/05:30pm 16.3 10.3 10.7 69 3.0 SW 33 39 18 21 1019.2 - -
26/05:20pm 16.2 10.2 10.8 70 2.9 SW 33 39 18 21 1019.4 - -
26/05:10pm 16.0 10.1 11.1 72 2.6 SSW 33 39 18 21 1019.4 - -
26/05:00pm 16.1 11.3 11.6 74 2.4 SW 28 35 15 19 1019.3 - -
26/04:50pm 16.3 11.5 11.6 74 2.5 SW 28 33 15 18 1019.3 - -
26/04:40pm 16.1 10.9 11.5 74 2.5 SW 30 35 16 19 1019.3 - -
26/04:30pm 16.1 10.6 11.8 75 2.3 SW 32 39 17 21 1019.3 - -
26/04:20pm 16.3 9.8 11.7 74 2.5 SSW 37 44 20 24 1019.7 - -
26/04:00pm 16.7 11.2 12.0 74 2.6 SW 32 37 17 20 1019.0 - -
26/03:50pm 16.8 11.2 12.0 73 2.6 SW 33 41 18 22 1019.1 - -
26/03:40pm 17.2 11.2 12.1 72 2.8 SW 35 44 19 24 1019.3 - -
26/03:30pm 17.6 9.8 11.8 69 3.2 SW 44 52 24 28 1018.9 - -
26/03:20pm 18.2 11.7 11.7 66 3.6 SW 37 50 20 27 1018.7 - -
26/03:10pm 18.0 13.2 11.6 66 3.5 SW 28 37 15 20 1018.8 - -
26/03:00pm 17.9 12.3 11.4 65 3.5 WSW 32 41 17 22 1018.7 - -
26/02:50pm 17.9 12.6 11.3 65 3.6 WSW 30 37 16 20 1018.8 - -
26/02:40pm 17.9 12.6 11.2 65 3.6 WSW 30 37 16 20 1018.8 - -
26/02:30pm 18.0 13.0 11.1 64 3.7 WSW 28 35 15 19 1018.8 - -
26/02:20pm 18.1 12.7 11.0 63 3.8 WSW 30 37 16 20 1018.8 - -
26/02:10pm 18.2 12.9 11.2 63 3.8 WSW 30 33 16 18 1018.8 - -
26/02:00pm 18.2 13.2 11.1 63 3.9 WSW 28 35 15 19 1018.9 - -
26/01:50pm 18.2 12.8 11.0 63 3.9 WSW 30 35 16 19 1018.9 - -
26/01:40pm 18.1 12.7 10.8 62 3.9 WSW 30 37 16 20 1019.0 - -
26/01:30pm 18.2 12.7 10.5 60 4.1 WSW 30 37 16 20 1018.9 - -
26/01:20pm 18.3 12.8 10.5 60 4.2 WSW 30 37 16 20 1018.8 - -
26/01:10pm 18.2 12.7 10.5 60 4.1 WSW 30 35 16 19 1018.9 - -
26/01:00pm 18.1 13.0 10.5 61 4.1 WSW 28 35 15 19 1019.0 - -
26/12:50pm 18.3 13.1 10.4 60 4.2 WSW 28 33 15 18 1019.0 - -
26/12:40pm 18.2 13.8 10.5 60 4.1 WSW 24 33 13 18 1019.1 - -
26/12:30pm 18.0 13.5 10.1 60 4.2 WSW 24 30 13 16 1019.2 - -
26/12:20pm 18.1 13.2 10.1 59 4.3 W 26 32 14 17 1019.2 - -
26/12:10pm 18.0 12.7 9.9 59 4.3 WSW 28 33 15 18 1019.2 - -
26/11:50am 18.2 13.3 9.9 58 4.4 WSW 26 32 14 17 1019.2 - -
26/11:40am 18.2 13.2 9.7 57 4.5 WSW 26 32 14 17 1019.2 - -
26/11:30am 18.0 12.7 9.7 58 4.4 WSW 28 35 15 19 1019.1 - -
26/11:20am 17.7 12.4 9.7 59 4.2 WSW 28 35 15 19 1019.1 - -
26/11:10am 17.4 12.0 9.6 60 4.1 W 28 32 15 17 1019.1 - -
26/11:00am 17.4 12.4 9.7 60 4.1 W 26 33 14 18 1019.1 - -
26/10:50am 17.4 11.6 9.6 60 4.1 W 30 35 16 19 1019.1 - -
26/10:40am 17.1 11.4 9.7 61 3.9 WSW 30 35 16 19 1019.1 - -
26/10:30am 17.0 10.7 9.6 61 3.9 WSW 33 37 18 20 1019.1 - -
26/10:20am 17.1 11.4 9.7 61 3.9 WSW 30 37 16 20 1019.1 - -
26/10:00am 16.7 11.0 9.7 63 3.7 WSW 30 37 16 20 1019.0 - -
26/09:50am 16.6 11.3 9.7 63 3.6 WSW 28 33 15 18 1019.0 - -
26/09:40am 16.8 11.5 9.7 63 3.7 WSW 28 33 15 18 1018.9 - -
26/09:30am 16.7 11.4 9.7 63 3.7 WSW 28 32 15 17 1018.8 - -
26/09:20am 16.6 11.7 9.8 64 3.6 WSW 26 32 14 17 1018.8 - -
26/09:10am 16.4 11.5 10.1 66 3.3 WSW 26 32 14 17 1018.8 - -
26/09:00am 16.0 11.5 10.2 68 3.1 WSW 24 28 13 15 1018.7 - -
26/08:50am 15.6 10.7 10.0 69 2.9 WSW 26 33 14 18 1018.7 - -
26/08:40am 15.3 10.0 9.8 69 2.9 WSW 28 35 15 19 1018.5 - -
26/08:30am 15.3 9.2 9.8 69 2.9 WSW 32 35 17 19 1018.5 - -
26/08:20am 15.3 9.6 9.8 69 2.9 WSW 30 35 16 19 1018.4 - -
26/08:10am 15.2 9.4 9.5 69 2.9 WSW 30 35 16 19 1018.4 - -
26/08:00am 15.2 9.0 9.4 68 3.0 WSW 32 37 17 20 1018.2 - -
26/07:50am 15.2 9.0 9.4 68 3.0 WSW 32 37 17 20 1018.1 - -
26/07:30am 15.2 9.4 9.6 69 2.9 WSW 30 37 16 20 1018.2 - -
26/07:20am 15.2 9.4 9.4 68 3.0 WSW 30 39 16 21 1018.2 - -
26/07:10am 15.4 9.2 9.4 67 3.1 WSW 32 35 17 19 1018.1 - -
26/07:00am 15.1 8.9 9.3 68 3.0 WSW 32 39 17 21 1017.9 - -
26/06:50am 15.0 9.1 9.1 68 3.0 WSW 30 37 16 20 1017.9 - -
26/06:40am 14.9 8.6 9.1 68 3.0 WSW 32 35 17 19 1017.9 - -
26/06:30am 14.9 9.0 9.1 68 3.0 WSW 30 35 16 19 1017.8 - -
26/06:20am 14.9 9.4 9.0 68 3.0 WSW 28 33 15 18 1017.8 - -
26/06:10am 14.9 9.0 9.0 68 3.0 WSW 30 35 16 19 1017.5 - -
26/06:00am 14.8 8.5 8.9 68 3.0 WSW 32 37 17 20 1017.5 - -
26/05:50am 14.8 8.3 9.0 68 3.0 WSW 33 37 18 20 1017.4 - -
26/05:40am 14.8 8.5 8.9 68 3.0 WSW 32 37 17 20 1017.5 - -
26/05:30am 14.8 8.3 9.0 68 3.0 WSW 33 39 18 21 1017.5 - -
26/05:20am 14.8 8.3 8.9 68 3.0 WSW 33 39 18 21 1017.3 - -
26/05:10am 14.8 8.3 8.9 68 3.0 WSW 33 39 18 21 1017.3 - -
26/05:00am 14.8 7.9 8.9 68 3.0 WSW 35 39 19 21 1017.4 - -
26/04:50am 14.8 8.3 9.1 68 2.9 WSW 33 39 18 21 1017.4 - -
26/04:40am 14.8 8.5 9.0 68 3.0 WSW 32 37 17 20 1017.5 - -
26/04:30am 14.7 8.4 8.8 68 3.0 WSW 32 37 17 20 1017.6 - -
26/04:20am 14.7 8.4 9.0 68 2.9 WSW 32 37 17 20 1017.6 - -
26/04:10am 14.7 8.4 9.1 69 2.9 WSW 32 37 17 20 1017.7 - -
26/04:00am 14.7 8.3 9.2 69 2.8 WSW 33 39 18 21 1017.6 - -
26/03:50am 14.6 7.8 9.1 69 2.8 WSW 35 41 19 22 1017.5 - -
26/03:40am 14.5 7.0 9.3 71 2.7 SW 39 44 21 24 1017.3 - -
26/03:30am 14.4 6.8 9.2 71 2.7 SW 39 44 21 24 1017.3 - -
26/03:10am 14.5 7.8 9.6 72 2.5 SW 35 43 19 23 1017.7 - -
26/03:00am 14.7 8.0 9.7 72 2.6 WSW 35 41 19 22 1017.8 - -
26/02:50am 14.7 8.0 9.7 72 2.6 WSW 35 41 19 22 1017.9 - -
26/02:40am 14.8 8.1 9.7 71 2.6 SW 35 41 19 22 1017.8 - -
26/02:30am 14.7 7.6 9.5 71 2.7 SW 37 43 20 23 1017.8 - -
26/02:20am 14.8 7.4 9.7 71 2.6 SW 39 44 21 24 1017.8 - -
26/02:10am 14.8 6.9 9.5 70 2.7 SW 41 48 22 26 1017.8 - -
26/02:00am 14.4 6.0 8.9 69 2.8 SW 43 50 23 27 1017.9 - -
26/01:50am 14.3 6.6 8.8 69 2.8 SW 39 44 21 24 1018.1 - -
26/01:40am 14.2 7.2 8.6 69 2.8 SW 35 43 19 23 1018.3 - -
26/01:30am 14.3 6.6 8.6 68 2.9 SW 39 44 21 24 1018.3 - -
26/01:20am 14.4 6.7 8.6 68 2.9 SW 39 43 21 23 1018.3 - -
26/01:10am 14.5 6.9 9.1 70 2.8 SW 39 43 21 23 1018.4 - -
26/01:00am 14.4 7.1 8.8 69 2.8 WSW 37 43 20 23 1018.5 - -
26/12:50am 14.4 6.8 9.0 70 2.7 WSW 39 44 21 24 1018.6 - -
26/12:40am 14.5 7.3 9.2 70 2.7 WSW 37 46 20 25 1018.6 - -
26/12:30am 14.6 7.0 9.1 69 2.8 WSW 39 44 21 24 1018.4 - -
26/12:20am 14.5 6.8 8.8 68 2.9 SW 39 44 21 24 1018.5 - -
26/12:10am 14.6 7.0 8.9 68 2.9 SW 39 44 21 24 1018.5 - -
26/12:00am 14.7 7.0 8.8 68 3.0 WSW 39 44 21 24 1018.5 - -
 
Date/Time
EDT
Temp
°C
App
Temp
°C
Dew
Point
Rel
Hum
%
Delta-T
°C
Wind Press
QNH
hPa
Press
MSL
hPa
Rain
since 9 am
mm
Dir
 
Spd
km/h
Gust
km/h
Spd
kts
Gust
kts
25/11:50pm 14.5 6.9 8.9 69 2.8 SW 39 44 21 24 1018.6 - -
25/11:40pm 14.5 6.9 9.0 69 2.8 SW 39 44 21 24 1018.6 - -
25/11:30pm 14.6 7.3 8.9 68 2.9 SW 37 44 20 24 1018.6 - -
25/11:20pm 14.6 6.5 8.7 67 3.0 SW 41 48 22 26 1018.5 - -
25/11:10pm 14.6 6.2 8.8 68 2.9 SW 43 50 23 27 1018.4 - -
25/11:00pm 14.6 7.0 8.9 68 2.9 SW 39 44 21 24 1018.5 - -
25/10:50pm 14.5 6.5 9.0 69 2.8 SW 41 46 22 25 1018.4 - -
25/10:40pm 14.7 7.6 9.4 70 2.7 SW 37 43 20 23 1018.5 - -
25/10:30pm 14.7 7.2 9.3 70 2.8 SW 39 44 21 24 1018.4 - -
25/10:20pm 14.7 7.6 9.4 70 2.7 SW 37 44 20 24 1018.5 - -
25/10:10pm 14.7 7.2 9.4 70 2.7 SW 39 46 21 25 1018.3 - -
25/10:00pm 14.8 7.3 9.5 70 2.7 SW 39 44 21 24 1018.5 - -
25/09:50pm 14.8 8.1 9.6 71 2.7 SW 35 44 19 24 1018.5 - -
25/09:30pm 15.1 8.4 9.7 70 2.8 SW 35 43 19 23 1018.5 - -
25/09:20pm 15.2 8.1 9.6 69 2.9 SW 37 44 20 24 1018.2 - -
25/09:10pm 15.3 7.4 9.4 68 3.0 SW 41 48 22 26 1018.0 - -
25/09:00pm 15.4 7.0 9.0 65 3.3 SW 43 50 23 27 1017.6 - -
25/08:50pm 15.6 6.6 9.0 65 3.4 SW 46 56 25 30 1017.5 - -
25/08:40pm 15.6 7.0 8.8 64 3.5 SW 44 56 24 30 1017.4 - -
25/08:30pm 15.6 6.2 8.7 63 3.5 SW 48 56 26 30 1017.1 - -
25/08:20pm 15.7 7.2 9.2 65 3.4 SW 44 57 24 31 1017.1 - -
25/08:10pm 15.8 7.3 9.1 64 3.4 SW 44 54 24 29 1016.9 - -
25/08:00pm 15.8 7.9 9.4 65 3.3 SW 41 52 22 28 1017.0 - -
25/07:50pm 15.8 7.9 9.2 65 3.4 SW 41 50 22 27 1016.8 - -
25/07:40pm 16.0 8.1 9.2 64 3.5 SW 41 52 22 28 1016.7 - -
25/07:30pm 15.9 7.5 8.8 62 3.6 SW 43 50 23 27 1016.4 - -
25/07:20pm 16.0 6.9 8.5 61 3.8 SW 46 56 25 30 1016.2 - -
25/07:10pm 16.0 7.4 8.9 62 3.6 SW 44 56 24 30 1016.1 - -
25/07:00pm 16.1 7.7 8.9 62 3.7 SW 43 52 23 28 1016.1 - -
25/06:50pm 16.1 8.7 9.7 66 3.3 SW 39 48 21 26 1016.2 - -
25/06:40pm 16.1 9.4 9.5 65 3.4 SW 35 46 19 25 1016.3 - -
25/06:30pm 16.1 8.2 9.2 63 3.6 SW 41 50 22 27 1016.1 - -
25/06:20pm 16.6 8.0 9.0 61 3.9 SW 44 52 24 28 1015.9 - -
25/06:10pm 16.1 6.7 8.8 62 3.7 SW 48 57 26 31 1015.7 - -
25/06:00pm 16.0 6.6 8.9 62 3.6 SW 48 56 26 30 1015.6 - -
25/05:50pm 16.2 7.3 9.1 63 3.7 SW 46 56 25 30 1015.6 - -
25/05:40pm 16.2 7.7 9.1 63 3.7 SW 44 56 24 30 1015.6 - -
25/05:30pm 16.1 7.1 8.9 62 3.7 SW 46 56 25 30 1015.5 - -
25/05:20pm 16.2 6.4 8.8 61 3.8 SW 50 57 27 31 1015.3 - -
25/05:10pm 16.3 6.9 8.9 61 3.8 SW 48 57 26 31 1015.3 - -
25/05:00pm 16.3 7.3 8.9 61 3.8 SW 46 57 25 31 1015.5 - -
25/04:50pm 16.3 7.3 8.7 60 3.9 SW 46 54 25 29 1015.6 - -
25/04:40pm 16.5 8.1 8.9 61 3.9 SW 43 52 23 28 1015.6 - -
25/04:30pm 16.4 8.0 8.9 61 3.9 SW 43 56 23 30 1015.6 - -
25/04:20pm 16.5 8.1 9.0 61 3.9 SW 43 52 23 28 1015.5 - -
25/04:10pm 16.5 8.0 9.2 62 3.8 SW 44 56 24 30 1015.5 - -
25/04:00pm 16.5 8.1 8.9 61 3.9 SW 43 50 23 27 1015.6 - -
25/03:50pm 16.5 8.4 8.7 60 4.0 SW 41 50 22 27 1015.7 - -
25/03:40pm 16.5 8.4 8.5 59 4.1 SW 41 48 22 26 1015.7 - -
25/03:30pm 16.4 7.6 8.2 58 4.2 SW 44 54 24 29 1015.5 - -
25/03:10pm 16.6 7.9 8.3 58 4.2 SW 44 54 24 29 1015.4 - -
25/03:00pm 16.7 7.6 8.3 57 4.3 SW 46 56 25 30 1015.3 - -
25/02:50pm 16.8 7.9 9.1 60 4.0 SW 46 56 25 30 1015.2 - -
25/02:40pm 16.8 8.5 9.3 61 3.9 SW 43 54 23 29 1015.4 - -
25/02:30pm 16.9 8.7 9.7 62 3.8 WSW 43 54 23 29 1015.4 - -
25/02:20pm 16.9 8.7 9.7 62 3.8 WSW 43 52 23 28 1015.5 - -
25/02:10pm 17.0 8.6 9.5 61 3.9 WSW 44 52 24 28 1015.3 - -
25/02:00pm 17.1 8.7 9.5 61 4.0 WSW 44 54 24 29 1015.3 - -
25/01:50pm 17.2 9.2 10.3 64 3.7 WSW 43 54 23 29 1015.3 - -
25/01:40pm 17.1 9.4 10.3 64 3.6 WSW 41 50 22 27 1015.4 - -
25/01:30pm 17.0 9.8 10.4 65 3.5 WSW 39 50 21 27 1015.4 - -
25/01:20pm 16.9 9.7 10.4 65 3.5 WSW 39 46 21 25 1015.3 - -
25/01:10pm 16.9 9.5 10.0 64 3.6 WSW 39 50 21 27 1015.1 - -
25/01:00pm 17.0 8.9 9.9 63 3.7 WSW 43 54 23 29 1014.9 - -
25/12:50pm 17.1 8.8 10.0 63 3.7 WSW 44 52 24 28 1014.8 - -
25/12:40pm 16.9 8.9 10.3 65 3.5 WSW 43 54 23 29 1014.7 - -
25/12:30pm 16.8 8.5 10.2 65 3.5 WSW 44 52 24 28 1014.6 - -
25/12:20pm 16.7 8.5 9.8 63 3.6 WSW 43 52 23 28 1014.5 - -
25/12:10pm 16.8 8.1 10.0 64 3.6 WSW 46 56 25 30 1014.3 - -
25/12:00pm 16.9 7.8 9.8 63 3.7 WSW 48 59 26 32 1014.1 - -
25/11:50am 16.8 8.5 9.9 64 3.6 WSW 44 56 24 30 1014.1 - -
25/11:40am 16.4 8.1 10.0 66 3.4 WSW 44 56 24 30 1014.1 - -
25/11:30am 16.6 7.0 9.6 63 3.7 WSW 50 59 27 32 1013.9 - -
25/11:20am 17.1 8.7 9.5 61 4.0 WSW 44 56 24 30 1013.9 - -
25/11:10am 17.3 8.9 9.7 61 4.0 WSW 44 54 24 29 1013.9 - -
25/11:00am 17.2 8.9 9.9 62 3.9 WSW 44 57 24 31 1013.8 - -
25/10:50am 17.1 8.3 9.7 61 3.9 WSW 46 57 25 31 1013.6 - -
25/10:40am 17.2 7.2 9.3 59 4.1 WSW 52 61 28 33 1013.3 - -
25/10:30am 17.2 8.4 9.5 60 4.0 WSW 46 56 25 30 1013.2 - -
25/10:20am 16.9 7.3 9.4 61 3.9 WSW 50 59 27 32 1013.0 - -
25/10:10am 16.9 7.3 9.5 61 3.9 WSW 50 61 27 33 1012.8 - -
25/10:00am 16.5 6.5 9.4 63 3.7 WSW 52 63 28 34 1012.6 - -
25/09:50am 16.1 6.5 9.4 64 3.5 WSW 50 57 27 31 1012.7 - -
25/09:40am 16.3 7.0 9.2 63 3.7 WSW 48 57 26 31 1012.8 - -
25/09:30am 16.5 7.7 9.4 63 3.7 WSW 46 56 25 30 1012.8 - -
25/09:20am 16.8 8.3 9.1 60 4.0 WSW 44 56 24 30 1012.6 - -
25/09:10am 16.8 7.4 8.9 59 4.1 WSW 48 56 26 30 1012.5 - -
25/09:00am 16.7 7.4 9.0 60 4.0 WSW 48 57 26 31 1012.3 - -
25/08:50am 16.4 7.1 9.1 62 3.8 WSW 48 57 26 31 1012.1 - -
25/08:40am 15.9 6.5 8.8 62 3.6 WSW 48 61 26 33 1012.0 - -
25/08:30am 16.0 6.6 8.6 61 3.8 WSW 48 57 26 31 1011.9 - -
25/08:20am 16.0 5.7 8.3 60 3.9 WSW 52 61 28 33 1011.7 - -
25/08:00am 15.7 5.4 8.3 61 3.7 WSW 52 61 28 33 1011.3 - -
25/07:50am 15.6 5.3 8.1 61 3.8 WSW 52 61 28 33 1011.2 - -
25/07:40am 15.3 5.0 8.1 62 3.6 WSW 52 63 28 34 1011.0 - -
25/07:30am 15.3 4.7 8.5 64 3.4 WSW 54 65 29 35 1010.8 - -
25/07:20am 15.1 5.0 8.9 66 3.2 WSW 52 65 28 35 1010.7 - -
25/07:10am 14.7 4.5 8.7 67 3.0 WSW 52 61 28 33 1010.4 - -
25/07:00am 14.6 4.1 8.8 68 2.9 WSW 54 61 29 33 1010.3 - -
25/06:50am 14.6 4.5 8.8 68 2.9 WSW 52 63 28 34 1010.1 - -
25/06:40am 14.6 4.1 8.9 68 2.9 WSW 54 63 29 34 1009.8 - -
25/06:30am 14.7 4.2 8.9 68 3.0 WSW 54 63 29 34 1009.6 - -
25/06:20am 14.7 3.8 8.8 68 3.0 WSW 56 70 30 38 1009.3 - -
25/06:10am 14.7 3.7 8.5 66 3.1 WSW 56 67 30 36 1009.1 - -
25/06:00am 14.6 3.4 8.4 66 3.1 WSW 57 67 31 36 1008.9 - -
25/05:50am 14.6 3.5 8.6 67 3.0 WSW 57 72 31 39 1008.6 - -
25/05:40am 14.6 3.7 8.9 68 2.9 WSW 56 67 30 36 1008.6 - -
25/05:30am 14.6 3.8 9.1 69 2.8 WSW 56 67 30 36 1008.5 - -
25/05:20am 14.8 4.4 9.3 69 2.8 WSW 54 65 29 35 1008.5 - -
25/05:10am 14.9 4.5 9.4 69 2.8 WSW 54 63 29 34 1008.4 - -
25/05:00am 15.0 5.3 9.2 68 3.0 WSW 50 61 27 33 1008.6 - -
25/04:50am 15.0 4.6 7.9 62 3.5 SW 52 65 28 35 1008.6 - -
25/04:40am 15.0 3.8 7.4 60 3.8 SW 56 65 30 35 1008.3 - -
25/03:40am 15.1 6.1 8.9 66 3.2 SW 46 59 25 32 1008.3 - -
25/03:30am 15.2 6.6 8.8 65 3.3 SW 44 54 24 29 1008.1 - -
25/03:20am 15.2 5.0 8.5 64 3.4 SW 52 61 28 33 1007.9 - -
25/03:10am 15.2 4.9 8.3 63 3.5 SW 52 59 28 32 1008.1 - -
25/02:40am 15.3 7.1 9.8 69 2.9 SW 43 52 23 28 1008.6 - -
25/02:30am 15.3 7.0 10.0 70 2.8 SW 44 54 24 29 1008.5 - -
25/02:20am 15.3 7.1 10.3 72 2.6 SW 44 52 24 28 1008.5 - -
25/02:10am 15.3 7.1 10.5 73 2.5 SW 44 54 24 29 1008.5 - -
25/02:00am 15.5 7.3 10.5 72 2.6 SW 44 52 24 28 1008.6 - -
25/01:50am 15.5 7.5 10.4 71 2.7 SW 43 52 23 28 1008.9 - -
25/01:40am 15.4 6.7 10.1 70 2.8 SW 46 56 25 30 1009.0 - -
25/01:30am 15.5 7.4 10.1 70 2.8 SW 43 50 23 27 1009.2 - -
25/01:20am 15.4 6.7 10.0 70 2.8 SW 46 56 25 30 1008.9 - -
25/01:10am 15.4 6.5 10.5 72 2.6 SW 48 56 26 30 1008.8 - -
25/01:00am 15.5 7.0 10.7 73 2.5 SW 46 54 25 29 1008.8 - -
25/12:50am 15.6 7.8 11.0 74 2.5 SW 43 52 23 28 1009.0 - -
25/12:40am 15.6 7.5 10.9 73 2.5 SW 44 56 24 30 1009.1 - -
25/12:30am 15.5 6.8 11.4 76 2.2 SW 48 56 26 30 1008.9 - -
25/12:20am 15.6 7.0 11.7 77 2.1 SW 48 57 26 31 1008.6 - -
25/12:10am 15.7 6.8 12.0 78 2.0 SW 50 57 27 31 1008.6 - -
25/12:00am 15.7 7.3 12.2 80 1.9 SW 48 59 26 32 1008.6 - -
 
Date/Time
EDT
Temp
°C
App
Temp
°C
Dew
Point
Rel
Hum
%
Delta-T
°C
Wind Press
QNH
hPa
Press
MSL
hPa
Rain
since 9 am
mm
Dir
 
Spd
km/h
Gust
km/h
Spd
kts
Gust
kts
24/11:50pm 15.9 8.5 12.5 80 1.9 SW 43 50 23 27 1008.8 - -
24/11:40pm 16.0 7.6 12.4 79 2.0 SW 48 56 26 30 1008.6 - -
24/11:30pm 16.1 8.1 12.5 79 2.0 SW 46 56 25 30 1008.7 - -
24/11:20pm 16.1 9.2 12.8 81 1.8 SW 41 52 22 28 1008.6 - -
24/11:10pm 16.1 10.0 13.1 82 1.7 SW 37 44 20 24 1008.5 - -
24/11:00pm 16.1 10.5 13.2 83 1.6 SW 35 43 19 23 1008.4 - -
24/10:40pm 16.0 10.1 13.7 86 1.3 SW 37 44 20 24 1008.4 - -
24/10:30pm 15.8 9.2 13.8 88 1.1 SW 41 50 22 27 1008.2 - -
24/10:20pm 15.8 9.3 14.1 90 1.0 SW 41 52 22 28 1008.0 - -
24/10:10pm 16.0 9.6 14.4 90 0.9 SW 41 52 22 28 1007.5 - -
24/10:00pm 16.1 10.2 14.6 91 0.9 SW 39 48 21 26 1007.1 - -
24/09:50pm 16.7 11.0 15.2 91 0.9 SW 39 48 21 26 1006.9 - -
24/09:40pm 17.1 12.0 15.7 91 0.8 WSW 37 46 20 25 1006.7 - -
24/09:30pm 17.5 13.3 16.2 92 0.8 W 33 43 18 23 1006.6 - -
24/09:20pm 17.8 14.0 16.6 93 0.7 W 32 39 17 21 1006.4 - -
24/09:10pm 18.0 16.2 16.9 93 0.7 W 22 32 12 17 1006.3 - -
24/09:00pm 17.8 17.3 17.0 95 0.5 WNW 15 30 8 16 1006.0 - -
24/08:50pm 17.4 17.9 16.5 94 0.5 NNW 9 13 5 7 1005.8 - -
24/08:40pm 17.2 18.2 16.3 94 0.5 NNW 6 11 3 6 1005.5 - -
24/08:30pm 17.1 17.5 16.2 94 0.5 N 9 17 5 9 1005.3 - -
24/08:20pm 17.1 15.9 16.2 94 0.5 N 17 20 9 11 1005.1 - -
24/08:10pm 17.1 17.1 16.3 95 0.5 N 11 17 6 9 1005.0 - -
24/08:00pm 17.1 16.7 16.3 95 0.5 N 13 19 7 10 1005.0 - -
24/07:50pm 17.1 16.4 16.3 95 0.5 N 15 20 8 11 1005.0 - -
24/07:40pm 17.1 16.0 16.3 95 0.5 N 17 22 9 12 1005.1 - -
24/07:30pm 17.1 16.4 16.3 95 0.5 NNE 15 20 8 11 1004.8 - -
24/07:20pm 17.1 16.0 16.3 95 0.5 NNE 17 22 9 12 1005.0 - -
24/07:10pm 17.2 16.5 16.3 94 0.5 NNE 15 20 8 11 1005.5 - -
24/07:00pm 17.2 16.0 16.2 94 0.6 NE 17 20 9 11 1005.2 - -
24/06:50pm 17.1 16.3 16.1 94 0.6 NE 15 19 8 10 1005.6 - -
24/06:40pm 17.0 15.8 16.0 94 0.6 NE 17 20 9 11 1005.4 - -
24/06:30pm 17.0 15.2 15.9 93 0.6 NE 20 24 11 13 1005.4 - -
24/06:20pm 16.9 17.1 15.7 93 0.7 NE 9 22 5 12 1005.8 - -
24/06:10pm 17.0 17.7 15.7 92 0.8 E 6 11 3 6 1006.1 - -
24/06:00pm 17.2 18.3 15.6 90 0.9 E 4 11 2 6 1006.3 - -
24/05:50pm 17.5 19.4 15.7 89 1.1 CALM 0 7 0 4 1006.8 - -
24/05:40pm 17.5 17.6 15.6 89 1.1 E 9 17 5 9 1006.1 - -
24/05:30pm 17.5 16.1 15.5 88 1.2 E 17 20 9 11 1005.6 - -
24/05:20pm 17.4 15.6 15.4 88 1.2 E 19 22 10 12 1005.5 - -
24/05:10pm 17.3 15.2 15.3 88 1.2 E 20 28 11 15 1005.3 - -
24/05:00pm 17.2 14.3 15.2 88 1.2 E 24 28 13 15 1005.0 - -
24/04:40pm 16.9 13.2 14.9 88 1.2 ESE 28 33 15 18 1005.3 - -
24/04:30pm 16.9 13.6 14.9 88 1.2 ESE 26 32 14 17 1005.9 - -
24/04:20pm 16.9 13.2 14.9 88 1.2 ESE 28 32 15 17 1006.2 - -
24/04:10pm 16.8 13.0 14.8 88 1.2 ESE 28 33 15 18 1006.5 - -
24/04:00pm 16.7 12.5 14.7 88 1.2 SE 30 33 16 18 1006.9 - -
24/03:50pm 16.6 12.5 14.8 89 1.0 SE 30 33 16 18 1007.2 - -
24/03:40pm 16.6 12.5 14.8 89 1.0 SE 30 35 16 19 1007.3 - -
24/03:30pm 16.5 12.4 14.8 90 1.0 SSE 30 35 16 19 1007.5 - -
24/03:20pm 16.4 12.3 14.8 90 0.9 SSE 30 35 16 19 1007.8 - -
24/03:10pm 16.4 12.7 14.9 91 0.9 SSE 28 33 15 18 1008.3 - -
24/03:00pm 16.5 12.0 15.0 91 0.9 SSE 32 35 17 19 1008.8 - -
24/02:50pm 16.6 12.6 15.1 91 0.9 S 30 35 16 19 1009.2 - -
24/02:40pm 16.8 13.2 15.2 90 0.9 S 28 30 15 16 1009.2 - -
24/02:30pm 17.0 13.8 15.4 90 0.9 S 26 28 14 15 1009.3 - -
24/02:20pm 17.2 15.2 15.5 90 1.0 S 20 28 11 15 1009.2 - -
24/02:10pm 17.3 15.5 15.4 88 1.1 S 19 26 10 14 1009.1 - -
24/02:00pm 17.9 15.9 15.5 86 1.4 S 20 24 11 13 1008.9 - -
24/01:50pm 18.5 16.6 15.7 84 1.7 S 20 22 11 12 1008.8 - -
24/01:40pm 19.4 17.8 15.9 80 2.1 SSW 19 20 10 11 1008.8 - -
24/01:30pm 19.7 20.0 16.1 80 2.2 SSW 9 15 5 8 1008.5 - -
24/01:20pm 19.7 19.8 16.5 82 1.9 SSW 11 13 6 7 1008.7 - -
24/01:10pm 19.2 20.5 16.1 82 1.9 SSW 4 11 2 6 1008.4 - -
24/01:00pm 18.9 20.9 16.0 83 1.7 CALM 0 2 0 1 1007.9 - -
24/12:50pm 18.7 20.5 15.6 82 1.8 CALM 0 4 0 2 1008.0 - -
24/12:30pm 19.1 19.8 15.5 79 2.1 ENE 6 7 3 4 1008.1 - -
24/12:20pm 19.2 19.7 15.6 79 2.1 NE 7 11 4 6 1008.2 - -
24/12:10pm 19.1 19.6 15.6 80 2.1 NE 7 11 4 6 1008.1 - -
24/12:00pm 19.0 19.1 15.5 80 2.1 NE 9 15 5 8 1008.0 - -
24/11:50am 19.0 18.4 15.6 80 2.0 NE 13 17 7 9 1007.8 - -
24/11:40am 18.8 18.1 15.5 81 1.9 ENE 13 15 7 8 1007.9 - -
24/11:30am 18.6 17.9 15.4 81 1.9 ENE 13 17 7 9 1008.0 - -
24/11:20am 18.4 17.4 15.5 83 1.7 NE 15 20 8 11 1008.1 - -
24/11:10am 18.3 17.2 15.4 83 1.7 NE 15 20 8 11 1008.2 - -
24/11:00am 18.5 17.0 15.4 82 1.8 NE 17 22 9 12 1008.2 - -
24/10:50am 18.6 16.6 15.5 82 1.8 NE 20 26 11 14 1008.4 - -
24/10:40am 18.4 16.4 15.4 83 1.8 NE 20 26 11 14 1008.7 - -
24/10:30am 18.1 16.2 15.2 83 1.7 ENE 19 24 10 13 1008.8 - -
24/10:20am 17.9 15.9 15.0 83 1.7 ENE 19 24 10 13 1008.8 - -
24/10:10am 17.9 15.8 14.7 81 1.9 ENE 19 26 10 14 1008.9 - -
24/10:00am 18.0 16.2 14.5 80 2.0 ENE 17 24 9 13 1009.0 - -
24/09:50am 18.1 16.3 14.4 79 2.1 ENE 17 24 9 13 1009.3 - -
24/09:40am 18.3 16.4 14.2 77 2.4 ENE 17 20 9 11 1009.4 - -
24/09:20am 18.4 15.5 13.9 75 2.6 NE 22 30 12 16 1009.8 - -
24/09:10am 18.0 14.9 13.4 74 2.6 NE 22 33 12 18 1009.6 - -
24/09:00am 17.9 14.7 13.1 73 2.7 NE 22 32 12 17 1009.5 - -
24/08:50am 18.0 15.1 13.0 72 2.8 ENE 20 28 11 15 1009.2 - -
24/08:40am 17.9 14.6 12.7 71 2.9 ENE 22 30 12 16 1009.0 - -
24/08:30am 18.1 15.1 12.4 69 3.2 ENE 20 28 11 15 1009.2 - -
24/08:20am 18.3 15.2 12.3 68 3.3 ENE 20 28 11 15 1009.5 - -
24/08:10am 17.9 14.3 12.0 68 3.3 ENE 22 26 12 14 1009.6 - -
24/08:00am 17.8 14.2 11.9 68 3.2 ENE 22 24 12 13 1009.6 - -
24/07:50am 17.4 14.1 11.7 69 3.1 ENE 20 24 11 13 1009.9 - -
24/07:40am 17.3 14.0 11.7 69 3.1 ENE 20 24 11 13 1010.0 - -
24/07:30am 17.3 13.7 11.7 69 3.1 ENE 22 24 12 13 1010.0 - -
24/07:20am 17.2 13.9 11.7 70 3.0 ENE 20 24 11 13 1010.1 - -
24/07:10am 17.2 13.9 11.6 69 3.1 ENE 20 22 11 12 1010.2 - -

Other Formats:

Comma delimited format used in spreadsheet applications
http://www.bom.gov.au/fwo/IDV60801/IDV60801.55039.axf

JavaScript Object Notation format (JSON) in row-major order
http://www.bom.gov.au/fwo/IDV60801/IDV60801.55039.json